Terminal Aerodrome Forecast
Issued by NWS Memphis, TN

Home | Current Version | Previous Version | Text Only | Print | Product List | Glossary On
Versions: 1 2 3 4 5 6 7 8 9 10 11 12 13 14 15 16 17
000
FTUS44 KMEG 221700
TAFMKL
TAF
KMKL 221740Z 2218/2318 VRB03KT P6SM FEW040
     FM230300 00000KT 4SM BR SKC
     FM231000 00000KT 2SM BR SKC
     FM231400 VRB03KT P6SM SKC=

USA.gov is the U.S. government's official web portal to all federal, state and local government web resources and services.